sensor_id;sensor_type;location;lat;lon;timestamp;temperature;humidity
17728;DHT22;8984;49.268;12.302;2023-06-22T00:00:47;20.70;99.90
17728;DHT22;8984;49.268;12.302;2023-06-22T00:03:15;20.70;99.90
17728;DHT22;8984;49.268;12.302;2023-06-22T00:05:42;20.60;99.90
17728;DHT22;8984;49.268;12.302;2023-06-22T00:08:09;20.60;99.90
17728;DHT22;8984;49.268;12.302;2023-06-22T00:10:35;20.50;99.90
17728;DHT22;8984;49.268;12.302;2023-06-22T00:13:02;20.50;99.90
17728;DHT22;8984;49.268;12.302;2023-06-22T00:15:30;20.50;99.90
17728;DHT22;8984;49.268;12.302;2023-06-22T00:17:57;20.50;99.90
17728;DHT22;8984;49.268;12.302;2023-06-22T00:20:25;20.40;99.90
17728;DHT22;8984;49.268;12.302;2023-06-22T00:22:53;20.40;99.90
17728;DHT22;8984;49.268;12.302;2023-06-22T00:25:20;20.40;99.90
17728;DHT22;8984;49.268;12.302;2023-06-22T00:27:47;20.40;99.90
17728;DHT22;8984;49.268;12.302;2023-06-22T00:30:14;20.30;99.90
17728;DHT22;8984;49.268;12.302;2023-06-22T00:32:43;20.30;99.90
17728;DHT22;8984;49.268;12.302;2023-06-22T00:35:11;20.20;99.90
17728;DHT22;8984;49.268;12.302;2023-06-22T00:37:38;20.20;99.90
17728;DHT22;8984;49.268;12.302;2023-06-22T00:40:08;20.20;99.90
17728;DHT22;8984;49.268;12.302;2023-06-22T00:42:37;20.10;99.90
17728;DHT22;8984;49.268;12.302;2023-06-22T00:45:05;20.10;99.90
17728;DHT22;8984;49.268;12.302;2023-06-22T00:47:32;20.10;99.90
17728;DHT22;8984;49.268;12.302;2023-06-22T00:50:02;20.10;99.90
17728;DHT22;8984;49.268;12.302;2023-06-22T00:52:29;20.10;99.90
17728;DHT22;8984;49.268;12.302;2023-06-22T00:54:59;20.10;99.90
17728;DHT22;8984;49.268;12.302;2023-06-22T00:57:28;20.00;99.90
17728;DHT22;8984;49.268;12.302;2023-06-22T00:59:55;20.00;99.90
17728;DHT22;8984;49.268;12.302;2023-06-22T01:02:22;20.00;99.90
17728;DHT22;8984;49.268;12.302;2023-06-22T01:04:49;20.00;99.90
17728;DHT22;8984;49.268;12.302;2023-06-22T01:07:22;20.10;99.90
17728;DHT22;8984;49.268;12.302;2023-06-22T01:09:59;20.10;99.90
17728;DHT22;8984;49.268;12.302;2023-06-22T01:12:30;20.00;99.90
17728;DHT22;8984;49.268;12.302;2023-06-22T01:15:02;20.00;99.90
17728;DHT22;8984;49.268;12.302;2023-06-22T01:17:31;19.90;99.90
17728;DHT22;8984;49.268;12.302;2023-06-22T01:20:00;19.90;99.90
17728;DHT22;8984;49.268;12.302;2023-06-22T01:22:43;19.90;99.90
17728;DHT22;8984;49.268;12.302;2023-06-22T01:25:16;20.00;99.90
17728;DHT22;8984;49.268;12.302;2023-06-22T01:27:53;20.00;99.90
17728;DHT22;8984;49.268;12.302;2023-06-22T01:30:28;19.90;99.90
17728;DHT22;8984;49.268;12.302;2023-06-22T01:32:57;19.80;99.90
17728;DHT22;8984;49.268;12.302;2023-06-22T01:35:25;19.80;99.90
17728;DHT22;8984;49.268;12.302;2023-06-22T01:37:53;19.80;99.90
17728;DHT22;8984;49.268;12.302;2023-06-22T01:40:20;19.80;99.90
17728;DHT22;8984;49.268;12.302;2023-06-22T01:42:48;19.80;99.90
17728;DHT22;8984;49.268;12.302;2023-06-22T01:45:17;19.80;99.90
17728;DHT22;8984;49.268;12.302;2023-06-22T01:47:47;19.90;99.90
17728;DHT22;8984;49.268;12.302;2023-06-22T01:50:13;20.00;99.90
17728;DHT22;8984;49.268;12.302;2023-06-22T01:52:40;20.10;99.90
17728;DHT22;8984;49.268;12.302;2023-06-22T01:55:08;20.20;99.90
17728;DHT22;8984;49.268;12.302;2023-06-22T01:57:35;20.20;99.90
17728;DHT22;8984;49.268;12.302;2023-06-22T02:00:04;20.20;99.90
17728;DHT22;8984;49.268;12.302;2023-06-22T02:02:36;20.10;99.90
17728;DHT22;8984;49.268;12.302;2023-06-22T02:05:08;20.10;99.90
17728;DHT22;8984;49.268;12.302;2023-06-22T02:07:41;20.20;99.90
17728;DHT22;8984;49.268;12.302;2023-06-22T02:10:10;20.20;99.90
17728;DHT22;8984;49.268;12.302;2023-06-22T02:12:39;20.30;99.90
17728;DHT22;8984;49.268;12.302;2023-06-22T02:15:09;20.30;99.90
17728;DHT22;8984;49.268;12.302;2023-06-22T02:17:36;20.30;99.90
17728;DHT22;8984;49.268;12.302;2023-06-22T02:20:03;20.30;99.90
17728;DHT22;8984;49.268;12.302;2023-06-22T02:22:35;20.30;99.90
17728;DHT22;8984;49.268;12.302;2023-06-22T02:25:02;20.30;99.90
17728;DHT22;8984;49.268;12.302;2023-06-22T02:27:29;20.30;99.90
17728;DHT22;8984;49.268;12.302;2023-06-22T02:29:56;20.30;99.90
17728;DHT22;8984;49.268;12.302;2023-06-22T02:32:23;20.30;99.90
17728;DHT22;8984;49.268;12.302;2023-06-22T02:34:49;20.30;99.90
17728;DHT22;8984;49.268;12.302;2023-06-22T02:37:17;20.40;99.90
17728;DHT22;8984;49.268;12.302;2023-06-22T02:39:45;20.40;99.90
17728;DHT22;8984;49.268;12.302;2023-06-22T02:42:12;20.40;99.90
17728;DHT22;8984;49.268;12.302;2023-06-22T02:44:39;20.40;99.90
17728;DHT22;8984;49.268;12.302;2023-06-22T02:47:05;20.40;99.90
17728;DHT22;8984;49.268;12.302;2023-06-22T02:49:32;20.40;99.90
17728;DHT22;8984;49.268;12.302;2023-06-22T02:51:59;20.40;99.90
17728;DHT22;8984;49.268;12.302;2023-06-22T02:54:26;20.40;99.90
17728;DHT22;8984;49.268;12.302;2023-06-22T02:56:54;20.40;99.90
17728;DHT22;8984;49.268;12.302;2023-06-22T02:59:20;20.40;99.90
17728;DHT22;8984;49.268;12.302;2023-06-22T03:01:49;20.40;99.90
17728;DHT22;8984;49.268;12.302;2023-06-22T03:04:16;20.40;99.90
17728;DHT22;8984;49.268;12.302;2023-06-22T03:06:42;20.40;99.90
17728;DHT22;8984;49.268;12.302;2023-06-22T03:09:09;20.40;99.90
17728;DHT22;8984;49.268;12.302;2023-06-22T03:11:36;20.40;99.90
17728;DHT22;8984;49.268;12.302;2023-06-22T03:14:04;20.40;99.90
17728;DHT22;8984;49.268;12.302;2023-06-22T03:16:31;20.50;99.90
17728;DHT22;8984;49.268;12.302;2023-06-22T03:18:58;20.50;99.90
17728;DHT22;8984;49.268;12.302;2023-06-22T03:21:27;20.50;99.90
17728;DHT22;8984;49.268;12.302;2023-06-22T03:23:54;20.50;99.90
17728;DHT22;8984;49.268;12.302;2023-06-22T03:26:21;20.60;99.90
17728;DHT22;8984;49.268;12.302;2023-06-22T03:28:48;20.60;99.90
17728;DHT22;8984;49.268;12.302;2023-06-22T03:31:16;20.60;99.90
17728;DHT22;8984;49.268;12.302;2023-06-22T03:33:47;20.60;99.90
17728;DHT22;8984;49.268;12.302;2023-06-22T03:36:13;20.50;99.90
17728;DHT22;8984;49.268;12.302;2023-06-22T03:38:41;20.50;99.90
17728;DHT22;8984;49.268;12.302;2023-06-22T03:41:08;20.40;99.90
17728;DHT22;8984;49.268;12.302;2023-06-22T03:43:35;20.50;99.90
17728;DHT22;8984;49.268;12.302;2023-06-22T03:46:02;20.50;99.90
17728;DHT22;8984;49.268;12.302;2023-06-22T03:48:30;20.60;99.90
17728;DHT22;8984;49.268;12.302;2023-06-22T03:50:56;20.50;99.90
17728;DHT22;8984;49.268;12.302;2023-06-22T03:53:23;20.60;99.90
17728;DHT22;8984;49.268;12.302;2023-06-22T03:55:51;20.60;99.90
17728;DHT22;8984;49.268;12.302;2023-06-22T03:58:18;20.60;99.90
17728;DHT22;8984;49.268;12.302;2023-06-22T04:00:45;20.60;99.90
17728;DHT22;8984;49.268;12.302;2023-06-22T04:03:12;20.40;99.90
17728;DHT22;8984;49.268;12.302;2023-06-22T04:05:41;20.40;99.90
17728;DHT22;8984;49.268;12.302;2023-06-22T04:08:08;20.30;99.90
17728;DHT22;8984;49.268;12.302;2023-06-22T04:10:35;20.30;99.90
17728;DHT22;8984;49.268;12.302;2023-06-22T04:13:02;20.20;99.90
17728;DHT22;8984;49.268;12.302;2023-06-22T04:15:29;20.00;99.90
17728;DHT22;8984;49.268;12.302;2023-06-22T04:17:56;20.10;99.90
17728;DHT22;8984;49.268;12.302;2023-06-22T04:20:23;20.20;99.90
17728;DHT22;8984;49.268;12.302;2023-06-22T04:22:52;20.20;99.90
17728;DHT22;8984;49.268;12.302;2023-06-22T04:25:19;20.00;99.90
17728;DHT22;8984;49.268;12.302;2023-06-22T04:27:46;20.00;99.90
17728;DHT22;8984;49.268;12.302;2023-06-22T04:30:13;20.10;99.90
17728;DHT22;8984;49.268;12.302;2023-06-22T04:32:42;20.00;99.90
17728;DHT22;8984;49.268;12.302;2023-06-22T04:35:09;19.90;99.90
17728;DHT22;8984;49.268;12.302;2023-06-22T04:37:36;20.00;99.90
17728;DHT22;8984;49.268;12.302;2023-06-22T04:40:06;20.10;99.90
17728;DHT22;8984;49.268;12.302;2023-06-22T04:42:34;20.00;99.90
17728;DHT22;8984;49.268;12.302;2023-06-22T04:45:02;20.20;99.90
17728;DHT22;8984;49.268;12.302;2023-06-22T04:47:29;20.30;99.90
17728;DHT22;8984;49.268;12.302;2023-06-22T04:49:56;20.50;99.90
17728;DHT22;8984;49.268;12.302;2023-06-22T04:52:22;20.70;99.90
17728;DHT22;8984;49.268;12.302;2023-06-22T04:54:50;20.80;99.90
17728;DHT22;8984;49.268;12.302;2023-06-22T04:57:22;21.00;99.90
17728;DHT22;8984;49.268;12.302;2023-06-22T04:59:56;21.20;99.90
17728;DHT22;8984;49.268;12.302;2023-06-22T05:02:23;21.40;99.90
17728;DHT22;8984;49.268;12.302;2023-06-22T05:04:57;21.50;99.90
17728;DHT22;8984;49.268;12.302;2023-06-22T05:07:24;21.70;99.90
17728;DHT22;8984;49.268;12.302;2023-06-22T05:09:51;21.80;99.90
17728;DHT22;8984;49.268;12.302;2023-06-22T05:12:17;21.90;99.90
17728;DHT22;8984;49.268;12.302;2023-06-22T05:14:45;22.00;99.90
17728;DHT22;8984;49.268;12.302;2023-06-22T05:17:12;22.10;99.90
17728;DHT22;8984;49.268;12.302;2023-06-22T05:19:40;22.20;99.90
17728;DHT22;8984;49.268;12.302;2023-06-22T05:22:14;22.40;99.90
17728;DHT22;8984;49.268;12.302;2023-06-22T05:24:40;22.50;99.90
17728;DHT22;8984;49.268;12.302;2023-06-22T05:27:07;22.60;99.90
17728;DHT22;8984;49.268;12.302;2023-06-22T05:29:34;22.80;99.90
17728;DHT22;8984;49.268;12.302;2023-06-22T05:32:02;23.00;99.90
17728;DHT22;8984;49.268;12.302;2023-06-22T05:34:29;23.10;99.90
17728;DHT22;8984;49.268;12.302;2023-06-22T05:36:56;23.20;99.90
17728;DHT22;8984;49.268;12.302;2023-06-22T05:39:24;23.30;99.90
17728;DHT22;8984;49.268;12.302;2023-06-22T05:41:51;23.40;99.90
17728;DHT22;8984;49.268;12.302;2023-06-22T05:44:18;23.70;99.90
17728;DHT22;8984;49.268;12.302;2023-06-22T05:46:45;23.90;99.90
17728;DHT22;8984;49.268;12.302;2023-06-22T05:49:15;24.20;99.90
17728;DHT22;8984;49.268;12.302;2023-06-22T05:51:42;24.50;99.90
17728;DHT22;8984;49.268;12.302;2023-06-22T05:54:09;24.70;99.90
17728;DHT22;8984;49.268;12.302;2023-06-22T05:56:38;24.70;99.90
17728;DHT22;8984;49.268;12.302;2023-06-22T05:59:05;24.80;99.90
17728;DHT22;8984;49.268;12.302;2023-06-22T06:01:32;25.10;99.90
17728;DHT22;8984;49.268;12.302;2023-06-22T06:04:00;25.20;99.90
17728;DHT22;8984;49.268;12.302;2023-06-22T06:06:28;25.40;99.90
17728;DHT22;8984;49.268;12.302;2023-06-22T06:08:55;25.60;99.90
17728;DHT22;8984;49.268;12.302;2023-06-22T06:11:22;26.00;99.90
17728;DHT22;8984;49.268;12.302;2023-06-22T06:13:49;26.40;99.90
17728;DHT22;8984;49.268;12.302;2023-06-22T06:16:16;26.70;99.90
17728;DHT22;8984;49.268;12.302;2023-06-22T06:18:42;27.00;99.90
17728;DHT22;8984;49.268;12.302;2023-06-22T06:21:09;27.30;99.90
17728;DHT22;8984;49.268;12.302;2023-06-22T06:23:37;27.70;99.90
17728;DHT22;8984;49.268;12.302;2023-06-22T06:26:04;28.00;99.90
17728;DHT22;8984;49.268;12.302;2023-06-22T06:28:32;28.20;99.90
17728;DHT22;8984;49.268;12.302;2023-06-22T06:30:59;28.20;99.90
17728;DHT22;8984;49.268;12.302;2023-06-22T06:33:25;28.50;99.90
17728;DHT22;8984;49.268;12.302;2023-06-22T06:35:52;28.60;99.90
17728;DHT22;8984;49.268;12.302;2023-06-22T06:38:21;28.70;99.90
17728;DHT22;8984;49.268;12.302;2023-06-22T06:40:50;28.80;99.90
17728;DHT22;8984;49.268;12.302;2023-06-22T06:43:17;29.00;99.90
17728;DHT22;8984;49.268;12.302;2023-06-22T06:45:44;29.00;99.90
17728;DHT22;8984;49.268;12.302;2023-06-22T06:48:10;29.20;99.90
17728;DHT22;8984;49.268;12.302;2023-06-22T06:50:37;29.20;99.90
17728;DHT22;8984;49.268;12.302;2023-06-22T06:53:04;29.40;99.90
17728;DHT22;8984;49.268;12.302;2023-06-22T06:55:31;29.60;99.90
17728;DHT22;8984;49.268;12.302;2023-06-22T06:58:01;29.80;99.90
17728;DHT22;8984;49.268;12.302;2023-06-22T07:00:29;29.70;99.90
17728;DHT22;8984;49.268;12.302;2023-06-22T07:02:56;29.40;99.90
17728;DHT22;8984;49.268;12.302;2023-06-22T07:05:23;29.20;99.90
17728;DHT22;8984;49.268;12.302;2023-06-22T07:07:49;29.20;99.90
17728;DHT22;8984;49.268;12.302;2023-06-22T07:10:16;29.20;99.90
17728;DHT22;8984;49.268;12.302;2023-06-22T07:12:43;29.30;99.90
17728;DHT22;8984;49.268;12.302;2023-06-22T07:15:11;29.50;99.90
17728;DHT22;8984;49.268;12.302;2023-06-22T07:17:39;29.50;99.90
17728;DHT22;8984;49.268;12.302;2023-06-22T07:20:07;29.50;99.90
17728;DHT22;8984;49.268;12.302;2023-06-22T07:22:36;29.60;99.90
17728;DHT22;8984;49.268;12.302;2023-06-22T07:25:03;29.50;99.90
17728;DHT22;8984;49.268;12.302;2023-06-22T07:27:35;29.50;99.90
17728;DHT22;8984;49.268;12.302;2023-06-22T07:30:05;29.50;99.90
17728;DHT22;8984;49.268;12.302;2023-06-22T07:32:41;29.70;99.90
17728;DHT22;8984;49.268;12.302;2023-06-22T07:35:36;29.70;99.90
17728;DHT22;8984;49.268;12.302;2023-06-22T07:38:41;29.70;99.90
17728;DHT22;8984;49.268;12.302;2023-06-22T07:41:26;29.90;99.90
17728;DHT22;8984;49.268;12.302;2023-06-22T07:43:55;29.80;99.90
17728;DHT22;8984;49.268;12.302;2023-06-22T07:46:23;30.00;99.90
17728;DHT22;8984;49.268;12.302;2023-06-22T07:48:56;30.00;99.90
17728;DHT22;8984;49.268;12.302;2023-06-22T07:51:27;29.50;99.90
17728;DHT22;8984;49.268;12.302;2023-06-22T07:53:55;29.60;99.90
17728;DHT22;8984;49.268;12.302;2023-06-22T07:56:23;29.40;99.90
17728;DHT22;8984;49.268;12.302;2023-06-22T07:58:51;29.70;99.90
17728;DHT22;8984;49.268;12.302;2023-06-22T08:01:19;29.50;99.90
17728;DHT22;8984;49.268;12.302;2023-06-22T08:03:48;29.60;99.90
17728;DHT22;8984;49.268;12.302;2023-06-22T08:06:16;29.50;99.90
17728;DHT22;8984;49.268;12.302;2023-06-22T08:08:43;29.60;99.90
17728;DHT22;8984;49.268;12.302;2023-06-22T08:11:13;29.80;99.90
17728;DHT22;8984;49.268;12.302;2023-06-22T08:13:40;30.00;99.90
17728;DHT22;8984;49.268;12.302;2023-06-22T08:16:07;30.10;99.90
17728;DHT22;8984;49.268;12.302;2023-06-22T08:18:33;30.10;99.90
17728;DHT22;8984;49.268;12.302;2023-06-22T08:21:00;30.60;99.90
17728;DHT22;8984;49.268;12.302;2023-06-22T08:23:28;30.80;99.90
17728;DHT22;8984;49.268;12.302;2023-06-22T08:25:55;30.60;99.90
17728;DHT22;8984;49.268;12.302;2023-06-22T08:28:22;30.70;99.90
17728;DHT22;8984;49.268;12.302;2023-06-22T08:30:48;30.80;99.90
17728;DHT22;8984;49.268;12.302;2023-06-22T08:33:15;30.90;99.90
17728;DHT22;8984;49.268;12.302;2023-06-22T08:35:43;30.70;99.90
17728;DHT22;8984;49.268;12.302;2023-06-22T08:38:10;30.70;99.90
17728;DHT22;8984;49.268;12.302;2023-06-22T08:40:40;30.90;99.90
17728;DHT22;8984;49.268;12.302;2023-06-22T08:43:07;30.90;99.90
17728;DHT22;8984;49.268;12.302;2023-06-22T08:45:34;31.00;99.90
17728;DHT22;8984;49.268;12.302;2023-06-22T08:48:01;30.90;99.90
17728;DHT22;8984;49.268;12.302;2023-06-22T08:50:27;31.10;99.90
17728;DHT22;8984;49.268;12.302;2023-06-22T08:52:54;31.10;99.90
17728;DHT22;8984;49.268;12.302;2023-06-22T08:55:21;31.30;99.90
17728;DHT22;8984;49.268;12.302;2023-06-22T08:57:49;31.30;99.90
17728;DHT22;8984;49.268;12.302;2023-06-22T09:00:17;31.50;99.90
17728;DHT22;8984;49.268;12.302;2023-06-22T09:05:20;31.50;99.60
17728;DHT22;8984;49.268;12.302;2023-06-22T09:07:47;31.70;99.90
17728;DHT22;8984;49.268;12.302;2023-06-22T09:10:14;31.40;99.80
17728;DHT22;8984;49.268;12.302;2023-06-22T09:12:41;31.80;99.90
17728;DHT22;8984;49.268;12.302;2023-06-22T09:15:09;32.10;99.90
17728;DHT22;8984;49.268;12.302;2023-06-22T09:17:36;32.40;99.90
17728;DHT22;8984;49.268;12.302;2023-06-22T09:20:03;32.80;99.00
17728;DHT22;8984;49.268;12.302;2023-06-22T09:22:31;32.90;99.20
17728;DHT22;8984;49.268;12.302;2023-06-22T09:24:58;33.20;99.60
17728;DHT22;8984;49.268;12.302;2023-06-22T09:27:25;33.40;98.80
17728;DHT22;8984;49.268;12.302;2023-06-22T09:29:52;33.40;98.80
17728;DHT22;8984;49.268;12.302;2023-06-22T09:32:20;33.30;98.20
17728;DHT22;8984;49.268;12.302;2023-06-22T09:34:46;33.60;97.90
17728;DHT22;8984;49.268;12.302;2023-06-22T09:37:13;33.60;97.50
17728;DHT22;8984;49.268;12.302;2023-06-22T09:39:40;33.60;96.60
17728;DHT22;8984;49.268;12.302;2023-06-22T09:42:07;33.70;96.80
17728;DHT22;8984;49.268;12.302;2023-06-22T09:44:34;33.80;97.20
17728;DHT22;8984;49.268;12.302;2023-06-22T09:47:01;33.90;96.90
17728;DHT22;8984;49.268;12.302;2023-06-22T09:49:29;33.90;95.80
17728;DHT22;8984;49.268;12.302;2023-06-22T09:51:57;34.10;95.80
17728;DHT22;8984;49.268;12.302;2023-06-22T09:54:24;34.20;96.10
17728;DHT22;8984;49.268;12.302;2023-06-22T09:56:51;34.10;96.10
17728;DHT22;8984;49.268;12.302;2023-06-22T09:59:17;34.30;96.20
17728;DHT22;8984;49.268;12.302;2023-06-22T10:01:44;34.40;96.30
17728;DHT22;8984;49.268;12.302;2023-06-22T10:04:12;34.30;95.60
17728;DHT22;8984;49.268;12.302;2023-06-22T10:06:42;34.50;95.80
17728;DHT22;8984;49.268;12.302;2023-06-22T10:09:16;34.60;96.00
17728;DHT22;8984;49.268;12.302;2023-06-22T10:11:53;34.50;94.50
17728;DHT22;8984;49.268;12.302;2023-06-22T10:14:21;34.50;94.90
17728;DHT22;8984;49.268;12.302;2023-06-22T10:17:10;34.60;95.40
17728;DHT22;8984;49.268;12.302;2023-06-22T10:20:01;34.70;93.80
17728;DHT22;8984;49.268;12.302;2023-06-22T10:22:38;34.90;94.50
17728;DHT22;8984;49.268;12.302;2023-06-22T10:25:13;35.00;93.70
17728;DHT22;8984;49.268;12.302;2023-06-22T10:28:01;35.00;91.90
17728;DHT22;8984;49.268;12.302;2023-06-22T10:30:38;34.70;92.50
17728;DHT22;8984;49.268;12.302;2023-06-22T10:33:09;34.50;91.40
17728;DHT22;8984;49.268;12.302;2023-06-22T10:35:37;34.20;92.50
17728;DHT22;8984;49.268;12.302;2023-06-22T10:38:10;34.20;92.80
17728;DHT22;8984;49.268;12.302;2023-06-22T10:40:42;34.10;93.00
17728;DHT22;8984;49.268;12.302;2023-06-22T10:43:11;34.40;93.10
17728;DHT22;8984;49.268;12.302;2023-06-22T10:45:54;34.30;92.80
17728;DHT22;8984;49.268;12.302;2023-06-22T10:48:22;34.60;92.50
17728;DHT22;8984;49.268;12.302;2023-06-22T10:50:49;34.80;92.50
17728;DHT22;8984;49.268;12.302;2023-06-22T10:53:20;35.20;92.00
17728;DHT22;8984;49.268;12.302;2023-06-22T10:55:52;35.30;92.50
17728;DHT22;8984;49.268;12.302;2023-06-22T10:58:24;35.40;92.20
17728;DHT22;8984;49.268;12.302;2023-06-22T11:00:58;35.50;90.70
17728;DHT22;8984;49.268;12.302;2023-06-22T11:03:36;35.50;91.20
17728;DHT22;8984;49.268;12.302;2023-06-22T11:06:06;35.20;90.30
17728;DHT22;8984;49.268;12.302;2023-06-22T11:08:48;35.30;91.20
17728;DHT22;8984;49.268;12.302;2023-06-22T11:11:17;35.50;90.60
17728;DHT22;8984;49.268;12.302;2023-06-22T11:13:50;35.40;90.20
17728;DHT22;8984;49.268;12.302;2023-06-22T11:16:18;35.30;90.70
17728;DHT22;8984;49.268;12.302;2023-06-22T11:18:46;35.60;90.70
17728;DHT22;8984;49.268;12.302;2023-06-22T11:21:21;35.40;91.00
17728;DHT22;8984;49.268;12.302;2023-06-22T11:23:52;35.70;91.10
17728;DHT22;8984;49.268;12.302;2023-06-22T11:26:23;35.60;90.10
17728;DHT22;8984;49.268;12.302;2023-06-22T11:28:57;35.60;90.20
17728;DHT22;8984;49.268;12.302;2023-06-22T11:31:31;35.60;90.00
17728;DHT22;8984;49.268;12.302;2023-06-22T11:34:08;35.80;90.30
17728;DHT22;8984;49.268;12.302;2023-06-22T11:37:03;35.90;90.60
17728;DHT22;8984;49.268;12.302;2023-06-22T11:39:32;36.10;90.10
17728;DHT22;8984;49.268;12.302;2023-06-22T11:42:11;36.20;90.50
17728;DHT22;8984;49.268;12.302;2023-06-22T11:44:49;36.20;89.80
17728;DHT22;8984;49.268;12.302;2023-06-22T11:47:16;36.10;89.20
17728;DHT22;8984;49.268;12.302;2023-06-22T11:49:43;36.10;90.20
17728;DHT22;8984;49.268;12.302;2023-06-22T11:52:12;36.20;90.20
17728;DHT22;8984;49.268;12.302;2023-06-22T11:54:45;36.30;90.30
17728;DHT22;8984;49.268;12.302;2023-06-22T11:57:25;36.50;90.10
17728;DHT22;8984;49.268;12.302;2023-06-22T11:59:53;36.40;89.70
17728;DHT22;8984;49.268;12.302;2023-06-22T12:02:21;36.30;88.80
17728;DHT22;8984;49.268;12.302;2023-06-22T12:04:49;35.90;88.70
17728;DHT22;8984;49.268;12.302;2023-06-22T12:07:18;36.00;90.30
17728;DHT22;8984;49.268;12.302;2023-06-22T12:09:53;36.10;90.70
17728;DHT22;8984;49.268;12.302;2023-06-22T12:12:25;36.30;90.00
17728;DHT22;8984;49.268;12.302;2023-06-22T12:14:53;36.40;90.00
17728;DHT22;8984;49.268;12.302;2023-06-22T12:17:21;36.50;90.00
17728;DHT22;8984;49.268;12.302;2023-06-22T12:19:49;36.30;89.50
17728;DHT22;8984;49.268;12.302;2023-06-22T12:22:21;36.60;90.10
17728;DHT22;8984;49.268;12.302;2023-06-22T12:24:56;36.80;89.80
17728;DHT22;8984;49.268;12.302;2023-06-22T12:27:24;37.00;90.00
17728;DHT22;8984;49.268;12.302;2023-06-22T12:29:53;37.10;89.10
17728;DHT22;8984;49.268;12.302;2023-06-22T12:32:22;37.10;89.50
17728;DHT22;8984;49.268;12.302;2023-06-22T12:34:51;37.10;89.50
17728;DHT22;8984;49.268;12.302;2023-06-22T12:37:21;37.00;89.30
17728;DHT22;8984;49.268;12.302;2023-06-22T12:39:49;37.20;89.10
17728;DHT22;8984;49.268;12.302;2023-06-22T12:42:20;37.40;89.90
17728;DHT22;8984;49.268;12.302;2023-06-22T12:44:49;37.20;89.60
17728;DHT22;8984;49.268;12.302;2023-06-22T12:47:17;37.50;89.90
17728;DHT22;8984;49.268;12.302;2023-06-22T12:49:50;37.70;89.70
17728;DHT22;8984;49.268;12.302;2023-06-22T12:52:26;37.60;88.50
17728;DHT22;8984;49.268;12.302;2023-06-22T12:55:18;37.20;89.10
17728;DHT22;8984;49.268;12.302;2023-06-22T12:57:54;37.20;86.60
17728;DHT22;8984;49.268;12.302;2023-06-22T13:00:22;37.40;87.40
17728;DHT22;8984;49.268;12.302;2023-06-22T13:02:54;37.60;87.90
17728;DHT22;8984;49.268;12.302;2023-06-22T13:05:28;37.70;87.70
17728;DHT22;8984;49.268;12.302;2023-06-22T13:07:56;37.90;87.00
17728;DHT22;8984;49.268;12.302;2023-06-22T13:10:37;37.80;86.40
17728;DHT22;8984;49.268;12.302;2023-06-22T13:13:06;37.60;87.60
17728;DHT22;8984;49.268;12.302;2023-06-22T13:15:34;37.80;87.40
17728;DHT22;8984;49.268;12.302;2023-06-22T13:18:02;37.80;87.90
17728;DHT22;8984;49.268;12.302;2023-06-22T13:20:44;38.10;87.20
17728;DHT22;8984;49.268;12.302;2023-06-22T13:23:12;38.30;86.00
17728;DHT22;8984;49.268;12.302;2023-06-22T13:25:40;38.30;86.40
17728;DHT22;8984;49.268;12.302;2023-06-22T13:28:15;38.60;86.80
17728;DHT22;8984;49.268;12.302;2023-06-22T13:30:47;38.60;84.50
17728;DHT22;8984;49.268;12.302;2023-06-22T13:33:17;38.50;85.10
17728;DHT22;8984;49.268;12.302;2023-06-22T13:35:50;38.70;85.20
17728;DHT22;8984;49.268;12.302;2023-06-22T13:38:22;38.80;83.70
17728;DHT22;8984;49.268;12.302;2023-06-22T13:41:18;38.80;84.70
17728;DHT22;8984;49.268;12.302;2023-06-22T13:43:45;38.20;85.10
17728;DHT22;8984;49.268;12.302;2023-06-22T13:46:12;38.30;85.40
17728;DHT22;8984;49.268;12.302;2023-06-22T13:48:39;38.10;86.00
17728;DHT22;8984;49.268;12.302;2023-06-22T13:51:05;38.20;86.20
17728;DHT22;8984;49.268;12.302;2023-06-22T13:53:32;38.20;84.70
17728;DHT22;8984;49.268;12.302;2023-06-22T13:55:59;38.20;85.10
17728;DHT22;8984;49.268;12.302;2023-06-22T13:58:27;38.00;84.90
17728;DHT22;8984;49.268;12.302;2023-06-22T14:00:54;38.10;86.00
17728;DHT22;8984;49.268;12.302;2023-06-22T14:03:20;38.30;85.40
17728;DHT22;8984;49.268;12.302;2023-06-22T14:05:47;38.40;83.20
17728;DHT22;8984;49.268;12.302;2023-06-22T14:08:14;38.40;83.40
17728;DHT22;8984;49.268;12.302;2023-06-22T14:10:42;38.10;83.00
17728;DHT22;8984;49.268;12.302;2023-06-22T14:13:09;38.20;83.70
17728;DHT22;8984;49.268;12.302;2023-06-22T14:15:37;38.00;83.80
17728;DHT22;8984;49.268;12.302;2023-06-22T14:18:04;37.80;84.10
17728;DHT22;8984;49.268;12.302;2023-06-22T14:20:31;37.90;85.10
17728;DHT22;8984;49.268;12.302;2023-06-22T14:22:57;38.00;84.30
17728;DHT22;8984;49.268;12.302;2023-06-22T14:25:24;38.00;85.00
17728;DHT22;8984;49.268;12.302;2023-06-22T14:27:51;38.20;84.90
17728;DHT22;8984;49.268;12.302;2023-06-22T14:30:18;38.30;84.00
17728;DHT22;8984;49.268;12.302;2023-06-22T14:32:46;38.60;83.80
17728;DHT22;8984;49.268;12.302;2023-06-22T14:35:12;38.70;82.70
17728;DHT22;8984;49.268;12.302;2023-06-22T14:37:39;38.60;83.00
17728;DHT22;8984;49.268;12.302;2023-06-22T14:40:06;38.20;83.00
17728;DHT22;8984;49.268;12.302;2023-06-22T14:42:33;38.20;83.40
17728;DHT22;8984;49.268;12.302;2023-06-22T14:45:00;38.10;83.80
17728;DHT22;8984;49.268;12.302;2023-06-22T14:47:27;38.00;84.50
17728;DHT22;8984;49.268;12.302;2023-06-22T14:49:55;38.00;85.40
17728;DHT22;8984;49.268;12.302;2023-06-22T14:52:22;37.90;85.10
17728;DHT22;8984;49.268;12.302;2023-06-22T14:54:49;37.90;85.20
17728;DHT22;8984;49.268;12.302;2023-06-22T14:57:17;37.70;84.70
17728;DHT22;8984;49.268;12.302;2023-06-22T14:59:45;37.70;84.40
17728;DHT22;8984;49.268;12.302;2023-06-22T15:02:12;37.90;84.60
17728;DHT22;8984;49.268;12.302;2023-06-22T15:04:39;38.10;83.90
17728;DHT22;8984;49.268;12.302;2023-06-22T15:07:07;38.10;83.80
17728;DHT22;8984;49.268;12.302;2023-06-22T15:09:34;38.00;83.20
17728;DHT22;8984;49.268;12.302;2023-06-22T15:12:01;38.10;83.70
17728;DHT22;8984;49.268;12.302;2023-06-22T15:14:31;38.30;81.50
17728;DHT22;8984;49.268;12.302;2023-06-22T15:16:57;38.40;81.80
17728;DHT22;8984;49.268;12.302;2023-06-22T15:19:24;38.60;82.20
17728;DHT22;8984;49.268;12.302;2023-06-22T15:21:51;38.60;83.00
17728;DHT22;8984;49.268;12.302;2023-06-22T15:24:19;38.60;82.90
17728;DHT22;8984;49.268;12.302;2023-06-22T15:26:46;38.70;83.20
17728;DHT22;8984;49.268;12.302;2023-06-22T15:29:12;38.70;83.10
17728;DHT22;8984;49.268;12.302;2023-06-22T15:31:39;38.80;82.40
17728;DHT22;8984;49.268;12.302;2023-06-22T15:34:06;38.70;82.80
17728;DHT22;8984;49.268;12.302;2023-06-22T15:36:34;38.50;82.10
17728;DHT22;8984;49.268;12.302;2023-06-22T15:39:00;38.50;83.20
17728;DHT22;8984;49.268;12.302;2023-06-22T15:41:29;38.60;84.20
17728;DHT22;8984;49.268;12.302;2023-06-22T15:43:55;38.50;84.70